sensor_id;sensor_type;location;lat;lon;timestamp;temperature;humidity
23721;DHT22;42950;52.134;5.578;2023-02-22T00:00:43;7.90;99.90
23721;DHT22;42950;52.134;5.578;2023-02-22T00:03:10;7.90;99.90
23721;DHT22;42950;52.134;5.578;2023-02-22T00:05:36;7.80;99.90
23721;DHT22;42950;52.134;5.578;2023-02-22T00:08:06;7.80;99.90
23721;DHT22;42950;52.134;5.578;2023-02-22T00:10:36;7.80;99.90
23721;DHT22;42950;52.134;5.578;2023-02-22T00:13:03;7.90;99.90
23721;DHT22;42950;52.134;5.578;2023-02-22T00:15:30;7.90;99.90
23721;DHT22;42950;52.134;5.578;2023-02-22T00:17:56;7.90;99.90
23721;DHT22;42950;52.134;5.578;2023-02-22T00:20:22;7.90;99.90
23721;DHT22;42950;52.134;5.578;2023-02-22T00:22:49;7.80;99.90
23721;DHT22;42950;52.134;5.578;2023-02-22T00:25:18;7.80;99.90
23721;DHT22;42950;52.134;5.578;2023-02-22T00:27:45;7.80;99.90
23721;DHT22;42950;52.134;5.578;2023-02-22T00:30:17;7.80;99.90
23721;DHT22;42950;52.134;5.578;2023-02-22T00:32:47;7.80;99.90
23721;DHT22;42950;52.134;5.578;2023-02-22T00:35:15;7.80;99.90
23721;DHT22;42950;52.134;5.578;2023-02-22T00:37:42;7.80;99.90
23721;DHT22;42950;52.134;5.578;2023-02-22T00:40:10;7.80;99.90
23721;DHT22;42950;52.134;5.578;2023-02-22T00:42:37;7.90;99.90
23721;DHT22;42950;52.134;5.578;2023-02-22T00:45:04;7.90;99.90
23721;DHT22;42950;52.134;5.578;2023-02-22T00:47:30;7.90;99.90
23721;DHT22;42950;52.134;5.578;2023-02-22T00:49:56;7.90;99.90
23721;DHT22;42950;52.134;5.578;2023-02-22T00:52:21;7.90;99.90
23721;DHT22;42950;52.134;5.578;2023-02-22T00:54:47;7.90;99.90
23721;DHT22;42950;52.134;5.578;2023-02-22T00:57:12;7.90;99.90
23721;DHT22;42950;52.134;5.578;2023-02-22T00:59:38;7.90;99.90
23721;DHT22;42950;52.134;5.578;2023-02-22T01:02:04;7.80;99.90
23721;DHT22;42950;52.134;5.578;2023-02-22T01:04:29;7.80;99.90
23721;DHT22;42950;52.134;5.578;2023-02-22T01:06:55;7.70;99.90
23721;DHT22;42950;52.134;5.578;2023-02-22T01:09:21;7.70;99.90
23721;DHT22;42950;52.134;5.578;2023-02-22T01:11:49;7.70;99.90
23721;DHT22;42950;52.134;5.578;2023-02-22T01:14:20;7.70;99.90
23721;DHT22;42950;52.134;5.578;2023-02-22T01:16:45;7.70;99.90
23721;DHT22;42950;52.134;5.578;2023-02-22T01:19:11;7.60;99.90
23721;DHT22;42950;52.134;5.578;2023-02-22T01:21:39;7.60;99.90
23721;DHT22;42950;52.134;5.578;2023-02-22T01:24:05;7.60;99.90
23721;DHT22;42950;52.134;5.578;2023-02-22T01:26:30;7.70;99.90
23721;DHT22;42950;52.134;5.578;2023-02-22T01:28:56;7.60;99.90
23721;DHT22;42950;52.134;5.578;2023-02-22T01:31:21;7.60;99.90
23721;DHT22;42950;52.134;5.578;2023-02-22T01:33:48;7.60;99.90
23721;DHT22;42950;52.134;5.578;2023-02-22T01:36:15;7.50;99.90
23721;DHT22;42950;52.134;5.578;2023-02-22T01:38:41;7.50;99.90
23721;DHT22;42950;52.134;5.578;2023-02-22T01:41:07;7.50;99.90
23721;DHT22;42950;52.134;5.578;2023-02-22T01:43:33;7.40;99.90
23721;DHT22;42950;52.134;5.578;2023-02-22T01:46:05;7.40;99.90
23721;DHT22;42950;52.134;5.578;2023-02-22T01:48:40;7.40;99.90
23721;DHT22;42950;52.134;5.578;2023-02-22T01:51:08;7.40;99.90
23721;DHT22;42950;52.134;5.578;2023-02-22T01:53:42;7.40;99.90
23721;DHT22;42950;52.134;5.578;2023-02-22T01:56:10;7.30;99.90
23721;DHT22;42950;52.134;5.578;2023-02-22T01:58:39;7.30;99.90
23721;DHT22;42950;52.134;5.578;2023-02-22T02:01:06;7.20;99.90
23721;DHT22;42950;52.134;5.578;2023-02-22T02:03:34;7.20;99.90
23721;DHT22;42950;52.134;5.578;2023-02-22T02:06:04;7.30;99.90
23721;DHT22;42950;52.134;5.578;2023-02-22T02:08:48;7.30;99.90
23721;DHT22;42950;52.134;5.578;2023-02-22T02:11:19;7.30;99.90
23721;DHT22;42950;52.134;5.578;2023-02-22T02:13:45;7.30;99.90
23721;DHT22;42950;52.134;5.578;2023-02-22T02:16:11;7.20;99.90
23721;DHT22;42950;52.134;5.578;2023-02-22T02:18:37;7.20;99.90
23721;DHT22;42950;52.134;5.578;2023-02-22T02:21:34;7.10;99.90
23721;DHT22;42950;52.134;5.578;2023-02-22T02:35:38;7.00;99.90
23721;DHT22;42950;52.134;5.578;2023-02-22T02:41:08;7.00;99.90
23721;DHT22;42950;52.134;5.578;2023-02-22T02:43:41;7.00;99.90
23721;DHT22;42950;52.134;5.578;2023-02-22T02:46:31;7.00;99.90
23721;DHT22;42950;52.134;5.578;2023-02-22T02:49:01;6.90;99.90
23721;DHT22;42950;52.134;5.578;2023-02-22T02:51:31;6.90;99.90
23721;DHT22;42950;52.134;5.578;2023-02-22T02:53:58;6.80;99.90
23721;DHT22;42950;52.134;5.578;2023-02-22T02:56:26;6.80;99.90
23721;DHT22;42950;52.134;5.578;2023-02-22T02:58:52;6.80;99.90
23721;DHT22;42950;52.134;5.578;2023-02-22T03:04:19;6.70;99.90
23721;DHT22;42950;52.134;5.578;2023-02-22T03:07:10;6.70;99.90
23721;DHT22;42950;52.134;5.578;2023-02-22T03:09:44;6.70;99.90
23721;DHT22;42950;52.134;5.578;2023-02-22T03:12:22;6.70;99.90
23721;DHT22;42950;52.134;5.578;2023-02-22T03:20:30;6.70;99.90
23721;DHT22;42950;52.134;5.578;2023-02-22T03:23:06;6.70;99.90
23721;DHT22;42950;52.134;5.578;2023-02-22T03:25:40;6.60;99.90
23721;DHT22;42950;52.134;5.578;2023-02-22T03:28:09;6.60;99.90
23721;DHT22;42950;52.134;5.578;2023-02-22T03:31:22;6.50;99.90
23721;DHT22;42950;52.134;5.578;2023-02-22T03:33:50;6.50;99.90
23721;DHT22;42950;52.134;5.578;2023-02-22T03:36:23;6.60;99.90
23721;DHT22;42950;52.134;5.578;2023-02-22T03:38:51;6.60;99.90
23721;DHT22;42950;52.134;5.578;2023-02-22T03:41:22;6.50;99.90
23721;DHT22;42950;52.134;5.578;2023-02-22T03:43:53;6.50;99.90
23721;DHT22;42950;52.134;5.578;2023-02-22T03:46:21;6.60;99.90
23721;DHT22;42950;52.134;5.578;2023-02-22T03:51:40;6.50;99.90
23721;DHT22;42950;52.134;5.578;2023-02-22T03:54:06;6.40;99.90
23721;DHT22;42950;52.134;5.578;2023-02-22T03:56:40;6.40;99.90
23721;DHT22;42950;52.134;5.578;2023-02-22T03:59:11;6.50;99.90
23721;DHT22;42950;52.134;5.578;2023-02-22T04:01:37;6.40;99.90
23721;DHT22;42950;52.134;5.578;2023-02-22T04:04:03;6.40;99.90
23721;DHT22;42950;52.134;5.578;2023-02-22T04:06:28;6.50;99.90
23721;DHT22;42950;52.134;5.578;2023-02-22T04:08:54;6.50;99.90
23721;DHT22;42950;52.134;5.578;2023-02-22T04:11:20;6.50;99.90
23721;DHT22;42950;52.134;5.578;2023-02-22T04:13:45;6.40;99.90
23721;DHT22;42950;52.134;5.578;2023-02-22T04:16:11;6.40;99.90
23721;DHT22;42950;52.134;5.578;2023-02-22T04:18:36;6.40;99.90
23721;DHT22;42950;52.134;5.578;2023-02-22T04:21:03;6.40;99.90
23721;DHT22;42950;52.134;5.578;2023-02-22T04:23:28;6.40;99.90
23721;DHT22;42950;52.134;5.578;2023-02-22T04:25:54;6.40;99.90
23721;DHT22;42950;52.134;5.578;2023-02-22T04:28:20;6.40;99.90
23721;DHT22;42950;52.134;5.578;2023-02-22T04:30:46;6.40;99.90
23721;DHT22;42950;52.134;5.578;2023-02-22T04:33:11;6.40;99.90
23721;DHT22;42950;52.134;5.578;2023-02-22T04:35:37;6.50;99.90
23721;DHT22;42950;52.134;5.578;2023-02-22T04:38:03;6.50;99.90
23721;DHT22;42950;52.134;5.578;2023-02-22T04:40:29;6.60;99.90
23721;DHT22;42950;52.134;5.578;2023-02-22T04:42:55;6.50;99.90
23721;DHT22;42950;52.134;5.578;2023-02-22T04:45:20;6.50;99.90
23721;DHT22;42950;52.134;5.578;2023-02-22T04:47:46;6.40;99.90
23721;DHT22;42950;52.134;5.578;2023-02-22T04:50:12;6.40;99.90
23721;DHT22;42950;52.134;5.578;2023-02-22T04:52:38;6.40;99.90
23721;DHT22;42950;52.134;5.578;2023-02-22T04:55:04;6.40;99.90
23721;DHT22;42950;52.134;5.578;2023-02-22T04:57:30;6.30;99.90
23721;DHT22;42950;52.134;5.578;2023-02-22T04:59:55;6.40;99.90
23721;DHT22;42950;52.134;5.578;2023-02-22T05:02:21;6.30;99.90
23721;DHT22;42950;52.134;5.578;2023-02-22T05:04:46;6.40;99.90
23721;DHT22;42950;52.134;5.578;2023-02-22T05:07:12;6.40;99.90
23721;DHT22;42950;52.134;5.578;2023-02-22T05:09:38;6.40;99.90
23721;DHT22;42950;52.134;5.578;2023-02-22T05:12:04;6.40;99.90
23721;DHT22;42950;52.134;5.578;2023-02-22T05:14:29;6.30;99.90
23721;DHT22;42950;52.134;5.578;2023-02-22T05:16:56;6.30;99.90
23721;DHT22;42950;52.134;5.578;2023-02-22T05:19:22;6.20;99.90
23721;DHT22;42950;52.134;5.578;2023-02-22T05:21:48;6.30;99.90
23721;DHT22;42950;52.134;5.578;2023-02-22T05:24:14;6.20;99.90
23721;DHT22;42950;52.134;5.578;2023-02-22T05:26:39;6.20;99.90
23721;DHT22;42950;52.134;5.578;2023-02-22T05:29:05;6.20;99.90
23721;DHT22;42950;52.134;5.578;2023-02-22T05:31:31;6.20;99.90
23721;DHT22;42950;52.134;5.578;2023-02-22T05:33:56;6.20;99.90
23721;DHT22;42950;52.134;5.578;2023-02-22T05:36:23;6.20;99.90
23721;DHT22;42950;52.134;5.578;2023-02-22T05:38:48;6.30;99.90
23721;DHT22;42950;52.134;5.578;2023-02-22T05:41:14;6.20;99.90
23721;DHT22;42950;52.134;5.578;2023-02-22T05:43:40;6.20;99.90
23721;DHT22;42950;52.134;5.578;2023-02-22T05:46:06;6.20;99.90
23721;DHT22;42950;52.134;5.578;2023-02-22T05:48:31;6.20;99.90
23721;DHT22;42950;52.134;5.578;2023-02-22T05:50:57;6.20;99.90
23721;DHT22;42950;52.134;5.578;2023-02-22T05:53:23;6.20;99.90
23721;DHT22;42950;52.134;5.578;2023-02-22T05:55:50;6.20;99.90
23721;DHT22;42950;52.134;5.578;2023-02-22T05:58:16;6.20;99.90
23721;DHT22;42950;52.134;5.578;2023-02-22T06:00:41;6.10;99.90
23721;DHT22;42950;52.134;5.578;2023-02-22T06:03:08;6.20;99.90
23721;DHT22;42950;52.134;5.578;2023-02-22T06:05:35;6.10;99.90
23721;DHT22;42950;52.134;5.578;2023-02-22T06:08:01;6.20;99.90
23721;DHT22;42950;52.134;5.578;2023-02-22T06:10:27;6.20;99.90
23721;DHT22;42950;52.134;5.578;2023-02-22T06:12:54;6.20;99.90
23721;DHT22;42950;52.134;5.578;2023-02-22T06:15:21;6.10;99.90
23721;DHT22;42950;52.134;5.578;2023-02-22T06:17:47;6.20;99.90
23721;DHT22;42950;52.134;5.578;2023-02-22T06:20:15;6.10;99.90
23721;DHT22;42950;52.134;5.578;2023-02-22T06:22:41;6.10;99.90
23721;DHT22;42950;52.134;5.578;2023-02-22T06:25:08;6.10;99.90
23721;DHT22;42950;52.134;5.578;2023-02-22T06:27:34;6.10;99.90
23721;DHT22;42950;52.134;5.578;2023-02-22T06:30:00;6.10;99.90
23721;DHT22;42950;52.134;5.578;2023-02-22T06:32:26;6.10;99.90
23721;DHT22;42950;52.134;5.578;2023-02-22T06:34:51;6.10;99.90
23721;DHT22;42950;52.134;5.578;2023-02-22T06:37:17;6.10;99.90
23721;DHT22;42950;52.134;5.578;2023-02-22T06:39:42;6.10;99.90
23721;DHT22;42950;52.134;5.578;2023-02-22T06:42:08;6.10;99.90
23721;DHT22;42950;52.134;5.578;2023-02-22T06:44:33;6.10;99.90
23721;DHT22;42950;52.134;5.578;2023-02-22T06:46:59;6.10;99.90
23721;DHT22;42950;52.134;5.578;2023-02-22T06:49:26;6.20;99.90
23721;DHT22;42950;52.134;5.578;2023-02-22T06:51:52;6.20;99.90
23721;DHT22;42950;52.134;5.578;2023-02-22T06:54:17;6.20;99.90
23721;DHT22;42950;52.134;5.578;2023-02-22T06:56:43;6.20;99.90
23721;DHT22;42950;52.134;5.578;2023-02-22T06:59:08;6.20;99.90
23721;DHT22;42950;52.134;5.578;2023-02-22T07:01:34;6.20;99.90
23721;DHT22;42950;52.134;5.578;2023-02-22T07:04:00;6.30;99.90
23721;DHT22;42950;52.134;5.578;2023-02-22T07:06:25;6.20;99.90
23721;DHT22;42950;52.134;5.578;2023-02-22T07:08:51;6.20;99.90
23721;DHT22;42950;52.134;5.578;2023-02-22T07:11:16;6.10;99.90
23721;DHT22;42950;52.134;5.578;2023-02-22T07:13:42;6.10;99.90
23721;DHT22;42950;52.134;5.578;2023-02-22T07:16:07;6.10;99.90
23721;DHT22;42950;52.134;5.578;2023-02-22T07:18:33;6.00;99.90
23721;DHT22;42950;52.134;5.578;2023-02-22T07:20:59;6.00;99.90
23721;DHT22;42950;52.134;5.578;2023-02-22T07:23:24;6.00;99.90
23721;DHT22;42950;52.134;5.578;2023-02-22T07:25:51;6.00;99.90
23721;DHT22;42950;52.134;5.578;2023-02-22T07:28:16;6.00;99.90
23721;DHT22;42950;52.134;5.578;2023-02-22T07:30:42;6.00;99.90
23721;DHT22;42950;52.134;5.578;2023-02-22T07:33:10;6.00;99.90
23721;DHT22;42950;52.134;5.578;2023-02-22T07:35:36;6.00;99.90
23721;DHT22;42950;52.134;5.578;2023-02-22T07:38:04;6.00;99.90
23721;DHT22;42950;52.134;5.578;2023-02-22T07:40:30;6.00;99.90
23721;DHT22;42950;52.134;5.578;2023-02-22T07:43:03;6.00;99.90
23721;DHT22;42950;52.134;5.578;2023-02-22T07:45:33;6.10;99.90
23721;DHT22;42950;52.134;5.578;2023-02-22T07:48:00;6.00;99.90
23721;DHT22;42950;52.134;5.578;2023-02-22T07:50:28;6.10;99.90
23721;DHT22;42950;52.134;5.578;2023-02-22T07:52:59;6.10;99.90
23721;DHT22;42950;52.134;5.578;2023-02-22T07:55:27;6.10;99.90
23721;DHT22;42950;52.134;5.578;2023-02-22T07:57:55;6.20;99.90
23721;DHT22;42950;52.134;5.578;2023-02-22T08:00:27;6.20;99.90
23721;DHT22;42950;52.134;5.578;2023-02-22T08:02:53;6.20;99.90
23721;DHT22;42950;52.134;5.578;2023-02-22T08:05:20;6.20;99.90
23721;DHT22;42950;52.134;5.578;2023-02-22T08:07:46;6.20;99.90
23721;DHT22;42950;52.134;5.578;2023-02-22T08:10:14;6.30;99.90
23721;DHT22;42950;52.134;5.578;2023-02-22T08:12:41;6.30;99.90
23721;DHT22;42950;52.134;5.578;2023-02-22T08:15:14;6.40;99.90
23721;DHT22;42950;52.134;5.578;2023-02-22T08:17:39;6.40;99.90
23721;DHT22;42950;52.134;5.578;2023-02-22T08:20:05;6.40;99.90
23721;DHT22;42950;52.134;5.578;2023-02-22T08:22:31;6.50;99.90
23721;DHT22;42950;52.134;5.578;2023-02-22T08:24:57;6.50;99.90
23721;DHT22;42950;52.134;5.578;2023-02-22T08:27:24;6.50;99.90
23721;DHT22;42950;52.134;5.578;2023-02-22T08:29:50;6.60;99.90
23721;DHT22;42950;52.134;5.578;2023-02-22T08:32:16;6.50;99.90
23721;DHT22;42950;52.134;5.578;2023-02-22T08:34:43;6.50;99.90
23721;DHT22;42950;52.134;5.578;2023-02-22T08:37:09;6.50;99.90
23721;DHT22;42950;52.134;5.578;2023-02-22T08:39:35;6.50;99.90
23721;DHT22;42950;52.134;5.578;2023-02-22T08:42:00;6.60;99.90
23721;DHT22;42950;52.134;5.578;2023-02-22T08:44:26;6.60;99.90
23721;DHT22;42950;52.134;5.578;2023-02-22T08:46:51;6.70;99.90
23721;DHT22;42950;52.134;5.578;2023-02-22T08:49:17;6.70;99.90
23721;DHT22;42950;52.134;5.578;2023-02-22T08:51:43;6.80;99.90
23721;DHT22;42950;52.134;5.578;2023-02-22T08:54:08;6.70;99.90
23721;DHT22;42950;52.134;5.578;2023-02-22T08:56:34;6.70;99.90
23721;DHT22;42950;52.134;5.578;2023-02-22T08:58:59;6.70;99.90
23721;DHT22;42950;52.134;5.578;2023-02-22T09:01:25;6.70;99.90
23721;DHT22;42950;52.134;5.578;2023-02-22T09:03:50;6.80;99.90
23721;DHT22;42950;52.134;5.578;2023-02-22T09:06:17;6.80;99.90
23721;DHT22;42950;52.134;5.578;2023-02-22T09:08:43;6.90;99.90
23721;DHT22;42950;52.134;5.578;2023-02-22T09:11:08;6.80;99.90
23721;DHT22;42950;52.134;5.578;2023-02-22T09:13:34;6.90;99.90
23721;DHT22;42950;52.134;5.578;2023-02-22T09:16:00;7.00;99.90
23721;DHT22;42950;52.134;5.578;2023-02-22T09:18:26;7.00;99.90
23721;DHT22;42950;52.134;5.578;2023-02-22T09:20:53;7.10;99.90
23721;DHT22;42950;52.134;5.578;2023-02-22T09:23:18;7.10;99.90
23721;DHT22;42950;52.134;5.578;2023-02-22T09:25:46;7.20;99.90
23721;DHT22;42950;52.134;5.578;2023-02-22T09:28:11;7.30;99.90
23721;DHT22;42950;52.134;5.578;2023-02-22T09:30:37;7.30;99.90
23721;DHT22;42950;52.134;5.578;2023-02-22T09:33:11;7.40;99.90
23721;DHT22;42950;52.134;5.578;2023-02-22T09:35:39;7.50;99.90
23721;DHT22;42950;52.134;5.578;2023-02-22T09:38:12;7.50;99.90
23721;DHT22;42950;52.134;5.578;2023-02-22T09:40:41;7.60;99.90
23721;DHT22;42950;52.134;5.578;2023-02-22T09:46:21;7.70;99.90
23721;DHT22;42950;52.134;5.578;2023-02-22T09:48:58;7.70;99.90
23721;DHT22;42950;52.134;5.578;2023-02-22T09:51:40;7.80;99.90
23721;DHT22;42950;52.134;5.578;2023-02-22T09:54:17;7.80;99.90
23721;DHT22;42950;52.134;5.578;2023-02-22T09:56:45;7.90;99.90
23721;DHT22;42950;52.134;5.578;2023-02-22T09:59:20;8.00;99.90
23721;DHT22;42950;52.134;5.578;2023-02-22T10:01:49;8.00;99.90
23721;DHT22;42950;52.134;5.578;2023-02-22T10:04:39;8.00;99.90
23721;DHT22;42950;52.134;5.578;2023-02-22T10:09:44;8.10;99.90
23721;DHT22;42950;52.134;5.578;2023-02-22T10:12:29;8.30;99.90
23721;DHT22;42950;52.134;5.578;2023-02-22T10:15:35;8.40;99.90
23721;DHT22;42950;52.134;5.578;2023-02-22T10:28:47;8.80;99.90
23721;DHT22;42950;52.134;5.578;2023-02-22T10:31:22;8.80;99.90
23721;DHT22;42950;52.134;5.578;2023-02-22T10:33:56;9.00;99.90
23721;DHT22;42950;52.134;5.578;2023-02-22T10:36:24;9.10;99.90
23721;DHT22;42950;52.134;5.578;2023-02-22T10:38:59;9.20;99.90
23721;DHT22;42950;52.134;5.578;2023-02-22T10:41:32;9.30;99.90
23721;DHT22;42950;52.134;5.578;2023-02-22T10:43:58;9.30;99.90
23721;DHT22;42950;52.134;5.578;2023-02-22T10:46:27;9.40;99.90
23721;DHT22;42950;52.134;5.578;2023-02-22T10:48:56;9.50;99.90
23721;DHT22;42950;52.134;5.578;2023-02-22T10:51:27;9.60;99.90
23721;DHT22;42950;52.134;5.578;2023-02-22T10:56:29;9.80;99.90
23721;DHT22;42950;52.134;5.578;2023-02-22T10:58:57;9.90;99.90
23721;DHT22;42950;52.134;5.578;2023-02-22T11:04:11;10.00;99.90
23721;DHT22;42950;52.134;5.578;2023-02-22T11:06:39;10.00;99.90
23721;DHT22;42950;52.134;5.578;2023-02-22T11:09:14;10.00;99.90
23721;DHT22;42950;52.134;5.578;2023-02-22T11:11:43;10.10;99.90
23721;DHT22;42950;52.134;5.578;2023-02-22T11:14:11;10.20;99.90
23721;DHT22;42950;52.134;5.578;2023-02-22T11:16:49;10.30;99.90
23721;DHT22;42950;52.134;5.578;2023-02-22T11:19:21;10.40;99.90
23721;DHT22;42950;52.134;5.578;2023-02-22T11:21:51;10.50;99.90
23721;DHT22;42950;52.134;5.578;2023-02-22T11:24:18;10.40;99.90
23721;DHT22;42950;52.134;5.578;2023-02-22T11:26:50;10.50;99.90
23721;DHT22;42950;52.134;5.578;2023-02-22T11:29:20;10.50;99.90
23721;DHT22;42950;52.134;5.578;2023-02-22T11:31:47;10.50;99.90
23721;DHT22;42950;52.134;5.578;2023-02-22T11:37:22;10.50;99.90
23721;DHT22;42950;52.134;5.578;2023-02-22T11:40:06;10.60;99.90
23721;DHT22;42950;52.134;5.578;2023-02-22T11:42:32;10.60;99.90
23721;DHT22;42950;52.134;5.578;2023-02-22T11:45:21;10.60;99.90
23721;DHT22;42950;52.134;5.578;2023-02-22T11:47:53;10.70;99.90
23721;DHT22;42950;52.134;5.578;2023-02-22T11:50:25;10.60;99.90
23721;DHT22;42950;52.134;5.578;2023-02-22T11:55:31;10.50;99.90
23721;DHT22;42950;52.134;5.578;2023-02-22T12:01:28;10.50;99.90
23721;DHT22;42950;52.134;5.578;2023-02-22T12:03:36;10.50;99.90
23721;DHT22;42950;52.134;5.578;2023-02-22T12:22:20;10.40;99.90
23721;DHT22;42950;52.134;5.578;2023-02-22T12:27:35;10.50;99.90
23721;DHT22;42950;52.134;5.578;2023-02-22T12:30:08;10.40;99.90
23721;DHT22;42950;52.134;5.578;2023-02-22T12:32:47;10.40;99.90
23721;DHT22;42950;52.134;5.578;2023-02-22T12:35:22;10.40;99.90
23721;DHT22;42950;52.134;5.578;2023-02-22T12:38:00;10.40;99.90
23721;DHT22;42950;52.134;5.578;2023-02-22T12:43:30;10.30;99.90
23721;DHT22;42950;52.134;5.578;2023-02-22T12:46:04;10.30;99.90
23721;DHT22;42950;52.134;5.578;2023-02-22T12:51:44;10.30;99.90
23721;DHT22;42950;52.134;5.578;2023-02-22T12:57:36;10.30;99.90
23721;DHT22;42950;52.134;5.578;2023-02-22T13:00:19;10.30;99.90
23721;DHT22;42950;52.134;5.578;2023-02-22T13:03:03;10.40;99.90
23721;DHT22;42950;52.134;5.578;2023-02-22T13:05:34;10.40;99.90
23721;DHT22;42950;52.134;5.578;2023-02-22T13:08:23;10.50;99.90
23721;DHT22;42950;52.134;5.578;2023-02-22T13:11:06;10.60;99.90
23721;DHT22;42950;52.134;5.578;2023-02-22T13:19:25;10.60;99.90
23721;DHT22;42950;52.134;5.578;2023-02-22T13:22:02;10.60;99.90
23721;DHT22;42950;52.134;5.578;2023-02-22T13:29:49;10.60;99.90
23721;DHT22;42950;52.134;5.578;2023-02-22T13:32:32;10.60;99.90
23721;DHT22;42950;52.134;5.578;2023-02-22T13:35:14;10.60;99.90
23721;DHT22;42950;52.134;5.578;2023-02-22T13:45:53;10.70;99.90
23721;DHT22;42950;52.134;5.578;2023-02-22T13:48:36;10.80;99.90
23721;DHT22;42950;52.134;5.578;2023-02-22T13:54:15;10.80;99.90
23721;DHT22;42950;52.134;5.578;2023-02-22T13:56:43;10.80;99.90
23721;DHT22;42950;52.134;5.578;2023-02-22T14:01:50;10.90;99.90
23721;DHT22;42950;52.134;5.578;2023-02-22T14:09:52;10.90;99.90
23721;DHT22;42950;52.134;5.578;2023-02-22T14:17:46;10.90;99.90
23721;DHT22;42950;52.134;5.578;2023-02-22T14:22:42;11.00;99.90
23721;DHT22;42950;52.134;5.578;2023-02-22T14:25:29;10.90;99.90
23721;DHT22;42950;52.134;5.578;2023-02-22T14:27:55;10.90;99.90
23721;DHT22;42950;52.134;5.578;2023-02-22T14:30:25;10.90;99.90
23721;DHT22;42950;52.134;5.578;2023-02-22T14:32:51;11.00;99.90
23721;DHT22;42950;52.134;5.578;2023-02-22T14:35:17;11.00;99.90
23721;DHT22;42950;52.134;5.578;2023-02-22T14:37:51;10.90;99.90
23721;DHT22;42950;52.134;5.578;2023-02-22T14:40:31;10.90;99.90
23721;DHT22;42950;52.134;5.578;2023-02-22T14:43:09;11.00;99.90
23721;DHT22;42950;52.134;5.578;2023-02-22T14:45:48;10.90;99.90
23721;DHT22;42950;52.134;5.578;2023-02-22T14:48:36;10.90;99.90
23721;DHT22;42950;52.134;5.578;2023-02-22T14:51:23;11.00;99.90
23721;DHT22;42950;52.134;5.578;2023-02-22T14:53:51;10.90;99.90
23721;DHT22;42950;52.134;5.578;2023-02-22T14:56:42;10.90;99.90
23721;DHT22;42950;52.134;5.578;2023-02-22T14:59:20;10.80;99.90
23721;DHT22;42950;52.134;5.578;2023-02-22T15:01:48;10.90;99.90
23721;DHT22;42950;52.134;5.578;2023-02-22T15:06:46;10.90;99.90
23721;DHT22;42950;52.134;5.578;2023-02-22T15:11:52;10.90;99.90
23721;DHT22;42950;52.134;5.578;2023-02-22T15:14:23;10.80;99.90
23721;DHT22;42950;52.134;5.578;2023-02-22T15:16:55;10.80;99.90
23721;DHT22;42950;52.134;5.578;2023-02-22T15:19:28;10.80;99.90
23721;DHT22;42950;52.134;5.578;2023-02-22T15:21:56;10.80;99.90
23721;DHT22;42950;52.134;5.578;2023-02-22T15:24:33;10.80;99.90
23721;DHT22;42950;52.134;5.578;2023-02-22T15:27:07;10.80;99.90
23721;DHT22;42950;52.134;5.578;2023-02-22T15:29:38;10.80;99.90
23721;DHT22;42950;52.134;5.578;2023-02-22T15:32:34;10.80;99.90
23721;DHT22;42950;52.134;5.578;2023-02-22T15:35:25;10.80;99.90
23721;DHT22;42950;52.134;5.578;2023-02-22T15:38:01;10.60;99.90
23721;DHT22;42950;52.134;5.578;2023-02-22T15:40:28;10.60;99.90
23721;DHT22;42950;52.134;5.578;2023-02-22T15:43:02;10.50;99.90
23721;DHT22;42950;52.134;5.578;2023-02-22T15:45:29;10.40;99.90
23721;DHT22;42950;52.134;5.578;2023-02-22T15:47:56;10.50;99.90
23721;DHT22;42950;52.134;5.578;2023-02-22T15:50:31;10.50;99.90
23721;DHT22;42950;52.134;5.578;2023-02-22T15:55:53;10.60;99.90
23721;DHT22;42950;52.134;5.578;2023-02-22T15:58:22;10.50;99.90
23721;DHT22;42950;52.134;5.578;2023-02-22T16:03:22;10.50;99.90
23721;DHT22;42950;52.134;5.578;2023-02-22T16:05:53;10.40;99.90
23721;DHT22;42950;52.134;5.578;2023-02-22T16:08:48;10.40;99.90
23721;DHT22;42950;52.134;5.578;2023-02-22T16:11:30;10.40;99.90
23721;DHT22;42950;52.134;5.578;2023-02-22T16:14:03;10.30;99.90
23721;DHT22;42950;52.134;5.578;2023-02-22T16:16:36;10.30;99.90
23721;DHT22;42950;52.134;5.578;2023-02-22T16:19:40;10.30;99.90
23721;DHT22;42950;52.134;5.578;2023-02-22T16:22:19;10.20;99.90
23721;DHT22;42950;52.134;5.578;2023-02-22T16:24:47;10.20;99.90
23721;DHT22;42950;52.134;5.578;2023-02-22T16:27:18;10.20;99.90
23721;DHT22;42950;52.134;5.578;2023-02-22T16:30:03;10.10;99.90
23721;DHT22;42950;52.134;5.578;2023-02-22T16:32:29;10.10;99.90
23721;DHT22;42950;52.134;5.578;2023-02-22T16:34:55;10.00;99.90
23721;DHT22;42950;52.134;5.578;2023-02-22T16:37:22;10.00;99.90
23721;DHT22;42950;52.134;5.578;2023-02-22T16:39:48;10.00;99.90
23721;DHT22;42950;52.134;5.578;2023-02-22T16:42:17;10.00;99.90
23721;DHT22;42950;52.134;5.578;2023-02-22T16:44:49;9.80;99.90
23721;DHT22;42950;52.134;5.578;2023-02-22T16:47:15;9.80;99.90
23721;DHT22;42950;52.134;5.578;2023-02-22T16:49:40;9.80;99.90
23721;DHT22;42950;52.134;5.578;2023-02-22T16:52:06;9.80;99.90
23721;DHT22;42950;52.134;5.578;2023-02-22T16:54:35;9.80;99.90
23721;DHT22;42950;52.134;5.578;2023-02-22T16:57:04;9.80;99.90
23721;DHT22;42950;52.134;5.578;2023-02-22T16:59:36;9.80;99.90
23721;DHT22;42950;52.134;5.578;2023-02-22T17:02:03;9.80;99.90
23721;DHT22;42950;52.134;5.578;2023-02-22T17:04:32;9.80;99.90
23721;DHT22;42950;52.134;5.578;2023-02-22T17:06:58;9.80;99.90
23721;DHT22;42950;52.134;5.578;2023-02-22T17:09:24;9.80;99.90
23721;DHT22;42950;52.134;5.578;2023-02-22T17:11:50;9.80;99.90
23721;DHT22;42950;52.134;5.578;2023-02-22T17:14:19;9.70;99.90
23721;DHT22;42950;52.134;5.578;2023-02-22T17:16:49;9.70;99.90
23721;DHT22;42950;52.134;5.578;2023-02-22T17:19:17;9.70;99.90
23721;DHT22;42950;52.134;5.578;2023-02-22T17:21:43;9.60;99.90
23721;DHT22;42950;52.134;5.578;2023-02-22T17:24:11;9.60;99.90
23721;DHT22;42950;52.134;5.578;2023-02-22T17:26:38;9.50;99.90
23721;DHT22;42950;52.134;5.578;2023-02-22T17:29:04;9.50;99.90
23721;DHT22;42950;52.134;5.578;2023-02-22T17:31:30;9.60;99.90
23721;DHT22;42950;52.134;5.578;2023-02-22T17:34:00;9.50;99.90
23721;DHT22;42950;52.134;5.578;2023-02-22T17:36:29;9.50;99.90
23721;DHT22;42950;52.134;5.578;2023-02-22T17:38:56;9.50;99.90
23721;DHT22;42950;52.134;5.578;2023-02-22T17:41:21;9.50;99.90
23721;DHT22;42950;52.134;5.578;2023-02-22T17:43:47;9.50;99.90
23721;DHT22;42950;52.134;5.578;2023-02-22T17:46:12;9.50;99.90
23721;DHT22;42950;52.134;5.578;2023-02-22T17:48:38;9.40;99.90
23721;DHT22;42950;52.134;5.578;2023-02-22T17:51:08;9.50;99.90
23721;DHT22;42950;52.134;5.578;2023-02-22T17:53:35;9.50;99.90
23721;DHT22;42950;52.134;5.578;2023-02-22T17:56:09;9.40;99.90
23721;DHT22;42950;52.134;5.578;2023-02-22T17:58:36;9.40;99.90
23721;DHT22;42950;52.134;5.578;2023-02-22T18:01:03;9.40;99.90
23721;DHT22;42950;52.134;5.578;2023-02-22T18:03:29;9.40;99.90
23721;DHT22;42950;52.134;5.578;2023-02-22T18:05:57;9.40;99.90
23721;DHT22;42950;52.134;5.578;2023-02-22T18:08:23;9.30;99.90
23721;DHT22;42950;52.134;5.578;2023-02-22T18:10:50;9.30;99.90